Time;durP1;ratioP1;P1;durP2;ratioP2;P2;SDS_P1;SDS_P2;PMS_P1;PMS_P2;Temp;Humidity;BMP_temperature;BMP_pressure;BME280_temperature;BME280_humidity;BME280_pressure;Samples;Min_cycle;Max_cycle;Signal;HPM_P1;HPM_P2
2021/08/14 00:01:59;;;;;;;10.03;7.13;;;;;;;;;;5114054;28;20515;-71
2021/08/14 00:04:26;;;;;;;11.43;6.40;;;;;;;;;;5113061;28;21087;-71
2021/08/14 00:06:53;;;;;;;9.30;7.43;;;;;;;;;;5114530;28;20436;-71
2021/08/14 00:09:20;;;;;;;7.60;6.90;;;;;;;;;;5113904;28;20524;-70
2021/08/14 00:11:47;;;;;;;9.80;6.50;;;;;;;;;;5112880;28;21003;-71
2021/08/14 00:14:16;;;;;;;8.00;7.00;;;;;;;;;;5113817;28;20479;-70
2021/08/14 00:16:43;;;;;;;9.60;6.97;;;;;;;;;;5114079;28;20448;-70
2021/08/14 00:19:10;;;;;;;11.17;7.90;;;;;;;;;;5113913;28;20495;-70
2021/08/14 00:21:37;;;;;;;9.47;7.10;;;;;;;;;;5113531;28;20471;-71
2021/08/14 00:24:05;;;;;;;7.77;6.97;;;;;;;;;;5113674;28;20478;-71
2021/08/14 00:26:32;;;;;;;8.33;6.87;;;;;;;;;;5114019;28;20535;-71
2021/08/14 00:28:59;;;;;;;10.20;6.60;;;;;;;;;;5113702;28;20454;-70
2021/08/14 00:31:27;;;;;;;9.77;6.60;;;;;;;;;;5113123;28;21070;-70
2021/08/14 00:33:54;;;;;;;7.90;7.10;;;;;;;;;;5113867;28;20443;-71
2021/08/14 00:36:22;;;;;;;9.67;7.03;;;;;;;;;;5113196;28;20435;-71
2021/08/14 00:38:49;;;;;;;9.13;7.03;;;;;;;;;;5113654;28;20436;-71
2021/08/14 00:41:17;;;;;;;8.73;7.77;;;;;;;;;;5112987;28;20436;-71
2021/08/14 00:43:45;;;;;;;11.70;8.17;;;;;;;;;;5113694;28;20435;-70
2021/08/14 00:46:12;;;;;;;8.70;7.20;;;;;;;;;;5112916;28;20462;-71
2021/08/14 00:48:41;;;;;;;7.80;7.10;;;;;;;;;;5113635;28;20479;-71
2021/08/14 00:51:09;;;;;;;7.60;6.33;;;;;;;;;;5112105;28;20952;-70
2021/08/14 00:53:36;;;;;;;9.50;7.37;;;;;;;;;;5113371;28;20451;-70
2021/08/14 00:56:03;;;;;;;7.30;6.17;;;;;;;;;;5113514;28;20436;-71
2021/08/14 00:58:31;;;;;;;7.60;6.90;;;;;;;;;;5112410;28;20446;-71
2021/08/14 01:00:59;;;;;;;8.40;6.63;;;;;;;;;;5113165;28;20440;-71
2021/08/14 01:03:27;;;;;;;9.10;7.03;;;;;;;;;;5112328;28;20482;-71
2021/08/14 01:05:56;;;;;;;7.87;6.40;;;;;;;;;;5112983;28;20439;-71
2021/08/14 01:08:23;;;;;;;6.80;6.17;;;;;;;;;;5112775;28;20468;-71
2021/08/14 01:10:51;;;;;;;9.07;6.37;;;;;;;;;;5113404;28;20443;-71
2021/08/14 01:13:18;;;;;;;10.97;6.80;;;;;;;;;;5112805;28;20471;-71
2021/08/14 01:15:46;;;;;;;7.37;6.50;;;;;;;;;;5112769;28;20442;-71
2021/08/14 01:18:13;;;;;;;7.73;6.60;;;;;;;;;;5112422;28;20928;-71
2021/08/14 01:20:41;;;;;;;8.50;7.23;;;;;;;;;;5112817;28;20471;-71
2021/08/14 01:23:10;;;;;;;9.83;7.10;;;;;;;;;;5111819;28;21016;-71
2021/08/14 01:25:37;;;;;;;8.13;7.17;;;;;;;;;;5112802;28;20444;-71
2021/08/14 01:28:06;;;;;;;8.40;6.07;;;;;;;;;;5112544;28;21009;-72
2021/08/14 01:30:33;;;;;;;8.83;6.93;;;;;;;;;;5112098;28;20935;-71
2021/08/14 01:33:00;;;;;;;11.10;7.30;;;;;;;;;;5112488;28;20538;-71
2021/08/14 01:35:27;;;;;;;7.73;6.67;;;;;;;;;;5112178;28;20795;-71
2021/08/14 01:37:54;;;;;;;7.20;6.17;;;;;;;;;;5112706;28;20527;-71
2021/08/14 01:40:22;;;;;;;8.80;6.10;;;;;;;;;;5112062;28;20432;-71
2021/08/14 01:42:49;;;;;;;10.67;6.77;;;;;;;;;;5112769;28;20435;-71
2021/08/14 01:45:17;;;;;;;6.80;6.13;;;;;;;;;;5111796;28;20439;-70
2021/08/14 01:47:44;;;;;;;11.30;6.50;;;;;;;;;;5112199;28;20480;-70
2021/08/14 01:50:12;;;;;;;7.30;6.37;;;;;;;;;;5111502;28;20451;-70
2021/08/14 01:52:39;;;;;;;7.20;6.50;;;;;;;;;;5111954;28;20439;-71
2021/08/14 01:55:07;;;;;;;7.27;6.57;;;;;;;;;;5112342;28;20456;-70
2021/08/14 01:57:34;;;;;;;8.20;7.40;;;;;;;;;;5111503;28;20969;-71
2021/08/14 02:00:01;;;;;;;8.10;6.53;;;;;;;;;;5111997;28;20523;-71
2021/08/14 02:02:31;;;;;;;9.13;7.47;;;;;;;;;;5111681;28;20535;-70
2021/08/14 02:04:58;;;;;;;6.57;5.97;;;;;;;;;;5112117;28;20444;-71
2021/08/14 02:07:25;;;;;;;9.23;7.47;;;;;;;;;;5111587;28;20804;-71
2021/08/14 02:09:52;;;;;;;7.43;6.73;;;;;;;;;;5111785;28;20490;-71
2021/08/14 02:12:19;;;;;;;7.50;6.70;;;;;;;;;;5111423;28;20489;-70
2021/08/14 02:14:46;;;;;;;7.57;6.83;;;;;;;;;;5112383;28;20522;-72
2021/08/14 02:17:13;;;;;;;9.53;6.27;;;;;;;;;;5111234;28;20544;-72
2021/08/14 02:19:42;;;;;;;9.40;7.00;;;;;;;;;;5111635;28;20949;-72
2021/08/14 02:22:09;;;;;;;9.13;7.43;;;;;;;;;;5110449;28;20838;-72
2021/08/14 02:24:36;;;;;;;8.80;7.13;;;;;;;;;;5110962;28;20847;-72
2021/08/14 02:27:03;;;;;;;8.00;7.20;;;;;;;;;;5111928;28;20468;-70
2021/08/14 02:29:32;;;;;;;9.57;7.20;;;;;;;;;;5111129;28;20515;-70
2021/08/14 02:31:59;;;;;;;13.43;6.70;;;;;;;;;;5111901;28;20440;-70
2021/08/14 02:34:26;;;;;;;9.47;6.90;;;;;;;;;;5110539;28;20467;-70
2021/08/14 02:36:54;;;;;;;7.60;6.80;;;;;;;;;;5111620;28;20447;-71
2021/08/14 02:39:22;;;;;;;7.47;6.63;;;;;;;;;;5111085;28;20498;-71
2021/08/14 02:41:49;;;;;;;6.83;6.23;;;;;;;;;;5111427;28;20807;-72
2021/08/14 02:44:16;;;;;;;8.17;7.37;;;;;;;;;;5110772;28;20535;-70
2021/08/14 02:46:43;;;;;;;9.40;7.47;;;;;;;;;;5096722;28;20440;-71
2021/08/14 02:49:10;;;;;;;8.40;6.80;;;;;;;;;;5111858;28;20547;-71
2021/08/14 02:51:37;;;;;;;7.33;6.17;;;;;;;;;;5110769;28;20471;-71
2021/08/14 02:54:06;;;;;;;7.17;6.40;;;;;;;;;;5111603;28;20467;-71
2021/08/14 02:56:33;;;;;;;8.20;6.90;;;;;;;;;;5111170;28;20465;-71
2021/08/14 02:59:00;;;;;;;8.93;6.23;;;;;;;;;;5111091;28;20455;-71
2021/08/14 03:01:27;;;;;;;9.00;6.87;;;;;;;;;;5110637;28;20526;-71
2021/08/14 03:03:54;;;;;;;9.10;8.10;;;;;;;;;;5111277;28;20447;-71
2021/08/14 03:06:28;;;;;;;7.70;6.90;;;;;;;;;;5110906;28;20522;-71
2021/08/14 03:08:56;;;;;;;8.23;6.73;;;;;;;;;;5111349;28;20466;-71
2021/08/14 03:11:24;;;;;;;9.03;7.03;;;;;;;;;;5110813;28;20463;-71
2021/08/14 03:13:52;;;;;;;7.30;6.30;;;;;;;;;;5111427;28;20443;-72
2021/08/14 03:16:19;;;;;;;10.67;6.67;;;;;;;;;;5110195;28;20947;-71
2021/08/14 03:18:46;;;;;;;7.80;6.40;;;;;;;;;;5111497;28;20454;-71
2021/08/14 03:21:13;;;;;;;8.23;6.97;;;;;;;;;;5111240;28;20474;-71
2021/08/14 03:23:40;;;;;;;9.27;6.77;;;;;;;;;;5110833;28;20474;-71
2021/08/14 03:26:07;;;;;;;9.73;8.00;;;;;;;;;;5111220;28;20502;-71
2021/08/14 03:28:36;;;;;;;9.40;7.60;;;;;;;;;;5110418;28;20475;-71
2021/08/14 03:31:04;;;;;;;8.77;6.67;;;;;;;;;;5111723;28;20564;-72
2021/08/14 03:33:31;;;;;;;8.03;6.67;;;;;;;;;;5110292;28;20439;-71
2021/08/14 03:35:59;;;;;;;10.00;6.97;;;;;;;;;;5111370;28;20443;-71
2021/08/14 03:38:26;;;;;;;7.63;6.80;;;;;;;;;;5109985;28;20969;-71
2021/08/14 03:40:53;;;;;;;9.37;7.17;;;;;;;;;;5111390;28;20441;-71
2021/08/14 03:43:21;;;;;;;7.90;7.20;;;;;;;;;;5110676;28;20564;-71
2021/08/14 03:45:53;;;;;;;7.90;6.90;;;;;;;;;;5111115;28;20448;-70
2021/08/14 03:48:20;;;;;;;10.53;7.63;;;;;;;;;;5113868;28;20452;-70
2021/08/14 03:50:47;;;;;;;10.00;6.73;;;;;;;;;;5115073;28;20538;-71
2021/08/14 03:53:15;;;;;;;8.17;6.23;;;;;;;;;;5114721;28;20453;-71
2021/08/14 03:55:42;;;;;;;8.43;6.47;;;;;;;;;;5114385;28;20458;-71
2021/08/14 03:58:09;;;;;;;8.60;7.40;;;;;;;;;;5114432;28;20952;-71
2021/08/14 04:00:37;;;;;;;8.57;6.30;;;;;;;;;;5113375;28;20924;-70
2021/08/14 04:03:05;;;;;;;10.60;7.97;;;;;;;;;;5114226;28;20530;-71
2021/08/14 04:05:32;;;;;;;9.00;6.87;;;;;;;;;;5113705;28;20450;-71
2021/08/14 04:08:00;;;;;;;8.73;7.83;;;;;;;;;;5114296;28;20444;-71
2021/08/14 04:10:27;;;;;;;10.77;7.50;;;;;;;;;;5113645;28;20472;-70
2021/08/14 04:12:55;;;;;;;8.40;7.50;;;;;;;;;;5114498;28;20482;-70
2021/08/14 04:15:22;;;;;;;9.67;7.43;;;;;;;;;;5113657;28;20856;-70
2021/08/14 04:17:49;;;;;;;8.90;7.10;;;;;;;;;;5114260;28;20450;-71
2021/08/14 04:20:17;;;;;;;8.67;7.77;;;;;;;;;;5114274;28;20482;-71
2021/08/14 04:22:44;;;;;;;7.63;6.80;;;;;;;;;;5113872;28;20436;-71
2021/08/14 04:25:12;;;;;;;8.47;7.23;;;;;;;;;;5114299;28;20450;-71
2021/08/14 04:27:39;;;;;;;8.37;7.47;;;;;;;;;;5113747;28;20440;-70
2021/08/14 04:30:07;;;;;;;11.40;6.70;;;;;;;;;;5114358;28;20890;-71
2021/08/14 04:32:34;;;;;;;7.70;6.93;;;;;;;;;;5113470;28;20474;-71
2021/08/14 04:35:03;;;;;;;9.07;7.30;;;;;;;;;;5113893;28;20497;-71
2021/08/14 04:37:31;;;;;;;7.30;6.50;;;;;;;;;;5113384;28;20526;-70
2021/08/14 04:39:58;;;;;;;12.00;8.40;;;;;;;;;;5114272;28;20879;-70
2021/08/14 04:42:26;;;;;;;8.13;6.60;;;;;;;;;;5113252;28;20443;-70
2021/08/14 04:44:53;;;;;;;7.87;6.73;;;;;;;;;;5113829;28;20450;-70
2021/08/14 04:47:20;;;;;;;7.83;6.83;;;;;;;;;;5113369;28;20986;-70
2021/08/14 04:49:48;;;;;;;7.40;6.70;;;;;;;;;;5114048;28;20519;-70
2021/08/14 04:52:15;;;;;;;10.47;7.53;;;;;;;;;;5113180;28;20589;-71
2021/08/14 04:54:43;;;;;;;8.90;6.83;;;;;;;;;;5113072;28;20872;-71
2021/08/14 04:57:10;;;;;;;8.20;7.40;;;;;;;;;;5113316;28;20436;-71
2021/08/14 04:59:38;;;;;;;7.10;6.47;;;;;;;;;;5112118;28;20450;-71
2021/08/14 05:02:05;;;;;;;9.70;7.60;;;;;;;;;;5112885;28;20534;-71
2021/08/14 05:04:32;;;;;;;10.93;7.90;;;;;;;;;;5112525;28;20956;-70
2021/08/14 05:07:00;;;;;;;8.47;7.33;;;;;;;;;;5113515;28;20450;-71
2021/08/14 05:09:27;;;;;;;8.50;7.23;;;;;;;;;;5113139;28;20472;-71
2021/08/14 05:11:56;;;;;;;8.33;6.80;;;;;;;;;;5113556;28;20440;-71
2021/08/14 05:14:23;;;;;;;8.20;7.40;;;;;;;;;;5113062;28;20525;-71
2021/08/14 05:16:50;;;;;;;7.27;6.60;;;;;;;;;;5113067;28;20467;-71
2021/08/14 05:19:18;;;;;;;10.13;6.80;;;;;;;;;;5113032;28;20458;-71
2021/08/14 05:21:45;;;;;;;8.83;6.83;;;;;;;;;;5112889;28;20478;-71
2021/08/14 05:24:12;;;;;;;8.23;7.40;;;;;;;;;;5113005;28;20465;-71
2021/08/14 05:26:39;;;;;;;10.23;7.47;;;;;;;;;;5111931;28;20462;-72
2021/08/14 05:29:07;;;;;;;10.47;7.90;;;;;;;;;;5112636;28;20510;-73
2021/08/14 05:31:35;;;;;;;13.03;7.80;;;;;;;;;;5111203;28;20530;-71
2021/08/14 05:34:04;;;;;;;7.90;7.07;;;;;;;;;;5111880;28;20450;-71
2021/08/14 05:36:32;;;;;;;9.03;8.23;;;;;;;;;;5112561;28;20447;-72
2021/08/14 05:38:59;;;;;;;7.83;6.87;;;;;;;;;;5112903;28;20468;-72
2021/08/14 05:41:26;;;;;;;7.70;6.90;;;;;;;;;;5112292;28;20468;-71
2021/08/14 05:43:53;;;;;;;8.17;7.03;;;;;;;;;;5113077;28;20427;-71
2021/08/14 05:46:22;;;;;;;8.53;6.57;;;;;;;;;;5108622;28;20943;-72
2021/08/14 05:48:49;;;;;;;7.67;5.93;;;;;;;;;;5111650;28;20876;-72
2021/08/14 05:51:16;;;;;;;10.03;7.73;;;;;;;;;;5112618;28;20436;-71
2021/08/14 05:53:43;;;;;;;9.00;6.60;;;;;;;;;;5113061;28;20471;-71
2021/08/14 05:56:11;;;;;;;8.10;6.97;;;;;;;;;;5112211;28;20530;-71
2021/08/14 05:58:38;;;;;;;7.83;7.03;;;;;;;;;;5112182;28;20436;-72
2021/08/14 06:01:05;;;;;;;8.30;6.30;;;;;;;;;;5112578;28;20534;-71
2021/08/14 06:03:35;;;;;;;11.97;7.10;;;;;;;;;;5107786;28;20452;-70
2021/08/14 06:06:02;;;;;;;6.80;6.10;;;;;;;;;;5111484;28;20447;-72
2021/08/14 06:08:30;;;;;;;7.40;6.70;;;;;;;;;;5111500;28;20439;-71
2021/08/14 06:10:57;;;;;;;8.00;7.30;;;;;;;;;;5112225;28;21021;-72
2021/08/14 06:13:25;;;;;;;10.77;6.60;;;;;;;;;;5111529;28;20445;-72
2021/08/14 06:15:52;;;;;;;10.00;7.40;;;;;;;;;;5111835;28;20444;-71
2021/08/14 06:18:19;;;;;;;9.40;7.23;;;;;;;;;;5112360;28;20446;-72
2021/08/14 06:20:48;;;;;;;8.83;7.83;;;;;;;;;;5111384;28;20471;-72
2021/08/14 06:23:15;;;;;;;13.50;7.43;;;;;;;;;;5112033;28;20542;-72
2021/08/14 06:25:42;;;;;;;7.73;6.93;;;;;;;;;;5110617;28;20432;-72
2021/08/14 06:28:09;;;;;;;8.50;7.53;;;;;;;;;;5111743;28;20440;-73
2021/08/14 06:30:36;;;;;;;10.07;6.53;;;;;;;;;;5111156;28;20471;-73
2021/08/14 06:33:03;;;;;;;9.60;6.80;;;;;;;;;;5111797;28;20450;-72
2021/08/14 06:35:31;;;;;;;14.80;6.70;;;;;;;;;;5111095;28;20450;-72
2021/08/14 06:37:59;;;;;;;8.33;7.20;;;;;;;;;;5111667;28;20446;-73
2021/08/14 06:40:26;;;;;;;9.20;7.63;;;;;;;;;;5111620;28;20457;-72
2021/08/14 06:42:53;;;;;;;12.33;7.77;;;;;;;;;;5111019;28;20448;-72
2021/08/14 06:45:21;;;;;;;7.17;6.47;;;;;;;;;;5111570;28;20440;-72
2021/08/14 06:47:48;;;;;;;8.50;6.90;;;;;;;;;;5111173;28;20452;-73
2021/08/14 06:50:15;;;;;;;7.93;7.10;;;;;;;;;;5111737;28;20475;-73
2021/08/14 06:52:43;;;;;;;8.60;6.60;;;;;;;;;;5110706;28;20536;-72
2021/08/14 06:55:12;;;;;;;9.73;7.53;;;;;;;;;;5110828;28;21008;-73
2021/08/14 06:57:39;;;;;;;8.03;6.90;;;;;;;;;;5110917;28;20532;-72
2021/08/14 07:00:07;;;;;;;9.63;7.50;;;;;;;;;;5111413;28;20504;-72
2021/08/14 07:02:34;;;;;;;7.37;6.60;;;;;;;;;;5110181;28;20784;-72
2021/08/14 07:05:03;;;;;;;11.57;7.20;;;;;;;;;;5095317;28;20502;-72
2021/08/14 07:07:30;;;;;;;10.03;6.93;;;;;;;;;;5093047;28;20433;-73
2021/08/14 07:09:57;;;;;;;9.90;7.47;;;;;;;;;;5111035;28;20532;-73
2021/08/14 07:12:26;;;;;;;7.37;6.60;;;;;;;;;;5111376;28;20874;-74
2021/08/14 07:14:55;;;;;;;8.80;6.30;;;;;;;;;;5097360;28;20539;-72
2021/08/14 07:17:22;;;;;;;8.10;7.30;;;;;;;;;;5102613;28;20538;-72
2021/08/14 07:19:49;;;;;;;8.03;7.10;;;;;;;;;;5106591;28;20464;-74
2021/08/14 07:22:16;;;;;;;10.70;7.17;;;;;;;;;;5112946;28;20555;-73
2021/08/14 07:24:44;;;;;;;8.07;7.27;;;;;;;;;;5114400;28;20537;-73
2021/08/14 07:27:11;;;;;;;9.23;6.57;;;;;;;;;;5108530;28;20444;-72
2021/08/14 07:29:40;;;;;;;10.13;6.83;;;;;;;;;;5111149;28;20483;-71
2021/08/14 07:32:07;;;;;;;9.53;7.80;;;;;;;;;;5114878;28;20518;-71
2021/08/14 07:34:34;;;;;;;9.40;7.80;;;;;;;;;;5113888;28;20483;-71
2021/08/14 07:37:01;;;;;;;10.63;7.53;;;;;;;;;;5115210;28;20476;-72
2021/08/14 07:39:29;;;;;;;7.33;6.63;;;;;;;;;;5115095;28;20451;-72
2021/08/14 07:41:56;;;;;;;7.63;6.90;;;;;;;;;;5114373;28;20923;-72
2021/08/14 07:44:23;;;;;;;9.10;7.73;;;;;;;;;;5114658;28;20478;-71
2021/08/14 07:46:52;;;;;;;8.10;7.07;;;;;;;;;;5114142;28;20865;-72
2021/08/14 07:49:19;;;;;;;7.07;6.47;;;;;;;;;;5114582;28;20530;-71
2021/08/14 07:51:46;;;;;;;7.30;6.17;;;;;;;;;;5114144;28;20447;-73
2021/08/14 07:54:13;;;;;;;8.40;7.60;;;;;;;;;;5114020;28;20797;-73
2021/08/14 07:56:40;;;;;;;8.53;7.50;;;;;;;;;;5113833;28;20538;-74
2021/08/14 07:59:08;;;;;;;13.60;8.27;;;;;;;;;;5114661;28;20508;-74
2021/08/14 08:01:35;;;;;;;8.80;6.67;;;;;;;;;;5113957;28;20443;-73
2021/08/14 08:04:03;;;;;;;13.50;7.20;;;;;;;;;;5111320;28;20960;-72
2021/08/14 08:06:31;;;;;;;10.90;6.63;;;;;;;;;;5114489;28;20436;-72
2021/08/14 08:08:58;;;;;;;9.50;7.40;;;;;;;;;;5114659;28;20819;-72
2021/08/14 08:11:25;;;;;;;9.77;7.23;;;;;;;;;;5114255;28;20486;-74
2021/08/14 08:13:52;;;;;;;8.03;7.10;;;;;;;;;;5113886;28;20468;-75
2021/08/14 08:16:19;;;;;;;8.77;7.47;;;;;;;;;;5114357;28;20508;-74
2021/08/14 08:18:47;;;;;;;8.03;6.20;;;;;;;;;;5112976;28;20471;-73
2021/08/14 08:21:15;;;;;;;6.97;6.20;;;;;;;;;;5114429;28;20528;-72
2021/08/14 08:23:42;;;;;;;9.23;6.63;;;;;;;;;;5098479;28;20447;-72
2021/08/14 08:26:10;;;;;;;8.30;7.00;;;;;;;;;;5112633;28;20446;-72
2021/08/14 08:28:37;;;;;;;6.93;6.33;;;;;;;;;;5108423;28;20559;-72
2021/08/14 08:31:04;;;;;;;7.70;6.50;;;;;;;;;;5109271;28;20471;-72
2021/08/14 08:33:31;;;;;;;7.97;6.50;;;;;;;;;;5110044;28;20454;-71
2021/08/14 08:35:58;;;;;;;8.77;6.50;;;;;;;;;;5110966;28;20856;-71
2021/08/14 08:38:27;;;;;;;8.77;6.20;;;;;;;;;;5111060;28;20888;-72
2021/08/14 08:40:56;;;;;;;8.63;7.73;;;;;;;;;;5110450;28;20818;-72
2021/08/14 08:43:23;;;;;;;7.73;6.93;;;;;;;;;;5111331;28;20454;-72
2021/08/14 08:45:51;;;;;;;8.03;7.30;;;;;;;;;;5110137;28;20567;-72
2021/08/14 08:48:19;;;;;;;8.60;7.70;;;;;;;;;;5111072;28;20459;-72
2021/08/14 08:50:47;;;;;;;7.87;7.00;;;;;;;;;;5099211;28;20562;-72
2021/08/14 08:53:14;;;;;;;6.70;6.10;;;;;;;;;;5111271;28;20453;-72
2021/08/14 08:55:43;;;;;;;6.83;6.17;;;;;;;;;;5110016;28;20548;-72
2021/08/14 08:58:10;;;;;;;6.93;6.27;;;;;;;;;;5111752;28;20882;-72
2021/08/14 09:00:37;;;;;;;8.57;6.03;;;;;;;;;;5110746;28;20462;-72
2021/08/14 09:03:12;;;;;;;7.30;6.63;;;;;;;;;;5110677;28;20440;-71
2021/08/14 09:05:46;;;;;;;6.47;5.87;;;;;;;;;;5110072;28;20447;-71
2021/08/14 09:08:14;;;;;;;7.70;6.90;;;;;;;;;;5110723;28;20440;-71
2021/08/14 09:10:42;;;;;;;7.40;6.60;;;;;;;;;;5110358;28;20471;-71
2021/08/14 09:13:14;;;;;;;8.50;6.47;;;;;;;;;;5109908;28;20458;-72
2021/08/14 09:15:41;;;;;;;7.43;6.73;;;;;;;;;;5109605;28;20873;-72
2021/08/14 09:18:09;;;;;;;7.27;6.27;;;;;;;;;;5110119;28;20486;-72
2021/08/14 09:20:45;;;;;;;6.53;5.93;;;;;;;;;;5109645;28;20472;-74
2021/08/14 09:23:13;;;;;;;7.03;6.27;;;;;;;;;;5094948;28;20454;-71
2021/08/14 09:25:43;;;;;;;7.00;6.07;;;;;;;;;;5109570;28;20454;-72
2021/08/14 09:28:11;;;;;;;6.13;5.50;;;;;;;;;;5110614;28;20451;-73
2021/08/14 09:30:45;;;;;;;8.27;6.00;;;;;;;;;;5109257;28;20528;-71
2021/08/14 09:33:14;;;;;;;7.47;6.07;;;;;;;;;;5110643;28;20500;-72
2021/08/14 09:35:41;;;;;;;6.60;6.00;;;;;;;;;;5109700;28;20440;-72
2021/08/14 09:38:09;;;;;;;7.40;5.73;;;;;;;;;;5109903;28;20822;-72
2021/08/14 09:40:40;;;;;;;6.83;5.60;;;;;;;;;;5109552;28;20439;-73
2021/08/14 09:43:09;;;;;;;6.20;5.60;;;;;;;;;;5111253;28;20466;-73
2021/08/14 09:45:36;;;;;;;6.47;5.87;;;;;;;;;;5110577;27;20748;-73
2021/08/14 09:48:17;;;;;;;6.67;5.80;;;;;;;;;;5113575;28;20448;-73
2021/08/14 09:50:44;;;;;;;9.83;6.30;;;;;;;;;;5111177;28;20479;-72
2021/08/14 09:53:12;;;;;;;7.20;6.50;;;;;;;;;;5112405;28;20436;-72
2021/08/14 09:55:40;;;;;;;6.47;5.50;;;;;;;;;;5113332;28;20453;-72
2021/08/14 09:58:10;;;;;;;7.20;6.60;;;;;;;;;;5111020;28;20463;-72
2021/08/14 10:00:37;;;;;;;8.47;6.77;;;;;;;;;;5109809;28;20518;-72
2021/08/14 10:03:05;;;;;;;6.90;6.13;;;;;;;;;;5109403;28;20535;-72
2021/08/14 10:05:33;;;;;;;6.80;6.20;;;;;;;;;;5109925;28;20436;-72
2021/08/14 10:08:00;;;;;;;7.60;6.67;;;;;;;;;;5109465;28;20435;-72
2021/08/14 10:10:28;;;;;;;8.57;7.80;;;;;;;;;;5109051;28;20471;-72
2021/08/14 10:12:55;;;;;;;6.83;6.20;;;;;;;;;;5109355;28;20832;-72
2021/08/14 10:15:24;;;;;;;7.00;6.30;;;;;;;;;;5109605;28;20455;-72
2021/08/14 10:17:51;;;;;;;6.70;6.07;;;;;;;;;;5108673;28;20542;-73
2021/08/14 10:20:18;;;;;;;7.27;6.53;;;;;;;;;;5109538;28;20783;-72
2021/08/14 10:22:46;;;;;;;7.40;6.70;;;;;;;;;;5109111;28;20431;-71
2021/08/14 10:25:17;;;;;;;6.60;6.00;;;;;;;;;;5109895;28;20443;-72
2021/08/14 10:27:56;;;;;;;7.03;6.43;;;;;;;;;;5109468;28;20510;-71
2021/08/14 10:30:41;;;;;;;7.50;6.77;;;;;;;;;;5109426;28;20758;-71
2021/08/14 10:33:10;;;;;;;6.37;5.77;;;;;;;;;;5105048;28;20445;-73
2021/08/14 10:35:39;;;;;;;8.53;7.67;;;;;;;;;;5095435;28;20424;-74
2021/08/14 10:38:26;;;;;;;9.63;8.23;;;;;;;;;;5106591;28;20782;-72
2021/08/14 10:41:01;;;;;;;7.13;6.50;;;;;;;;;;5093565;28;20463;-72
2021/08/14 10:43:46;;;;;;;7.23;6.63;;;;;;;;;;5094859;28;20423;-75
2021/08/14 10:46:28;;;;;;;7.37;6.67;;;;;;;;;;5091261;28;20434;-71
2021/08/14 10:48:57;;;;;;;7.63;6.93;;;;;;;;;;5090591;28;20446;-71
2021/08/14 10:51:24;;;;;;;6.87;6.17;;;;;;;;;;5091445;28;20566;-72
2021/08/14 10:53:51;;;;;;;7.50;6.57;;;;;;;;;;5090970;28;20823;-72
2021/08/14 10:56:44;;;;;;;7.00;6.40;;;;;;;;;;5090521;28;20438;-73
2021/08/14 10:59:31;;;;;;;6.77;6.07;;;;;;;;;;5091419;28;20522;-73
2021/08/14 11:01:59;;;;;;;7.70;7.00;;;;;;;;;;5090508;28;20793;-73
2021/08/14 11:04:35;;;;;;;6.30;5.70;;;;;;;;;;5091699;28;20526;-74
2021/08/14 11:07:17;;;;;;;7.90;5.50;;;;;;;;;;5091300;28;21209;-73
2021/08/14 11:09:44;;;;;;;7.70;7.00;;;;;;;;;;5090522;28;20436;-72
2021/08/14 11:12:11;;;;;;;8.03;7.20;;;;;;;;;;5091421;28;20472;-73
2021/08/14 11:14:40;;;;;;;7.63;6.30;;;;;;;;;;5091305;28;20527;-73
2021/08/14 11:17:07;;;;;;;7.27;6.57;;;;;;;;;;5090903;28;20821;-73
2021/08/14 11:19:47;;;;;;;7.47;6.87;;;;;;;;;;5091542;28;20448;-73
2021/08/14 11:22:24;;;;;;;11.00;6.70;;;;;;;;;;5091464;28;20553;-73
2021/08/14 11:24:52;;;;;;;7.83;6.90;;;;;;;;;;5090893;28;20440;-73
2021/08/14 11:27:20;;;;;;;8.83;6.83;;;;;;;;;;5091796;28;20194;-73
2021/08/14 11:29:47;;;;;;;10.23;7.37;;;;;;;;;;5091062;28;20288;-73
2021/08/14 11:32:15;;;;;;;8.53;6.97;;;;;;;;;;5092261;28;20225;-74
2021/08/14 11:34:42;;;;;;;6.50;5.90;;;;;;;;;;5091573;28;20190;-73
2021/08/14 11:37:11;;;;;;;7.43;6.83;;;;;;;;;;5091218;28;20285;-71
2021/08/14 11:39:38;;;;;;;6.20;5.70;;;;;;;;;;5090979;28;20604;-71
2021/08/14 11:42:06;;;;;;;7.75;7.05;;;;;;;;;;5090584;28;20209;-72
2021/08/14 11:44:35;;;;;;;7.95;6.60;;;;;;;;;;5091088;28;20277;-72
2021/08/14 11:47:02;;;;;;;7.93;6.95;;;;;;;;;;5090500;28;20190;-72
2021/08/14 11:49:30;;;;;;;7.43;6.70;;;;;;;;;;5090704;28;20233;-72
2021/08/14 11:52:03;;;;;;;7.15;6.43;;;;;;;;;;5090001;28;20210;-71
2021/08/14 11:54:32;;;;;;;7.97;7.00;;;;;;;;;;5090959;28;20200;-72
2021/08/14 11:57:09;;;;;;;8.00;7.18;;;;;;;;;;5090424;28;20281;-72
2021/08/14 11:59:36;;;;;;;9.15;6.97;;;;;;;;;;5091058;28;20174;-73
2021/08/14 12:02:04;;;;;;;8.70;7.70;;;;;;;;;;5090516;28;20280;-72
2021/08/14 12:04:31;;;;;;;7.40;6.80;;;;;;;;;;5090841;28;20280;-72
2021/08/14 12:06:59;;;;;;;8.23;7.43;;;;;;;;;;5090586;28;20716;-71
2021/08/14 12:09:26;;;;;;;7.80;7.07;;;;;;;;;;5094496;28;20194;-72
2021/08/14 12:11:55;;;;;;;8.20;7.50;;;35.70;1.00;;;;;;5094138;28;20217;-72
2021/08/14 12:14:24;;;;;;;9.68;7.90;;;31.60;99.90;;;;;;5094119;28;20656;-71
2021/08/14 12:16:52;;;;;;;8.75;7.28;;;31.10;99.90;;;;;;5093824;28;20276;-71
2021/08/14 12:19:21;;;;;;;9.32;8.43;;;31.20;99.90;;;;;;5094370;28;20243;-72
2021/08/14 12:21:51;;;;;;;7.88;7.13;;;31.10;99.90;;;;;;5093294;28;20577;-72
2021/08/14 12:24:17;;;;;;;8.25;7.53;;;31.30;99.90;;;;;;5094188;28;20186;-72
2021/08/14 12:26:44;;;;;;;7.60;6.90;;;31.50;99.90;;;;;;5094198;28;20196;-72
2021/08/14 12:29:15;;;;;;;8.10;7.50;;;31.40;99.90;;;;;;5093263;28;20642;-72
2021/08/14 12:31:47;;;;;;;8.43;7.57;;;31.10;99.90;;;;;;5094076;28;20213;-72
2021/08/14 12:34:28;;;;;;;9.23;8.32;;;30.90;99.90;;;;;;5093689;28;20190;-72
2021/08/14 12:37:04;;;;;;;10.40;8.30;;;31.20;99.90;;;;;;5093383;28;20186;-71
2021/08/14 12:39:54;;;;;;;8.30;7.50;;;31.30;99.90;;;;;;5093520;28;20281;-72
2021/08/14 12:42:23;;;;;;;8.70;7.90;;;31.50;99.90;;;;;;5094020;28;20182;-72
2021/08/14 12:44:51;;;;;;;8.50;7.55;;;31.40;99.90;;;;;;5093159;28;20277;-72
2021/08/14 12:47:26;;;;;;;11.00;8.35;;;31.20;99.90;;;;;;5093410;28;20190;-73
2021/08/14 12:50:17;;;;;;;8.52;7.30;;;31.20;99.90;;;;;;5093173;28;20205;-71
2021/08/14 12:52:58;;;;;;;10.40;9.40;;;31.30;99.90;;;;;;5093300;28;20201;-72
2021/08/14 12:55:29;;;;;;;7.47;6.72;;;31.40;99.90;;;;;;5093804;28;20186;-73
2021/08/14 12:57:58;;;;;;;7.32;6.72;;;31.40;99.90;;;;;;5092578;28;20186;-72
2021/08/14 13:00:26;;;;;;;7.72;7.03;;;31.50;99.90;;;;;;5093686;28;20580;-72
2021/08/14 13:02:53;;;;;;;7.57;6.80;;;31.80;99.90;;;;;;5092957;28;20289;-73
2021/08/14 13:05:20;;;;;;;8.13;7.43;;;31.60;99.90;;;;;;5093262;28;20226;-73
2021/08/14 13:07:48;;;;;;;7.90;7.28;;;31.40;99.90;;;;;;5093075;28;20285;-73
2021/08/14 13:10:15;;;;;;;8.65;7.80;;;31.50;99.90;;;;;;5093174;28;20202;-73
2021/08/14 13:12:50;;;;;;;9.18;6.82;;;31.40;99.90;;;;;;5093251;28;20213;-73
2021/08/14 13:15:17;;;;;;;8.95;7.80;;;31.70;99.90;;;;;;5093227;28;20193;-73
2021/08/14 13:17:46;;;;;;;7.93;7.13;;;31.80;99.90;;;;;;5092969;28;20190;-74
2021/08/14 13:20:13;;;;;;;8.00;7.40;;;31.20;99.90;;;;;;5091607;28;20229;-73
2021/08/14 13:22:41;;;;;;;8.77;7.97;;;31.00;99.90;;;;;;5093256;28;20221;-73
2021/08/14 13:25:08;;;;;;;7.85;7.25;;;30.80;99.90;;;;;;5092172;28;20198;-72
2021/08/14 13:27:39;;;;;;;8.23;7.43;;;31.10;99.90;;;;;;5093058;28;20281;-73
2021/08/14 13:30:09;;;;;;;8.00;7.20;;;30.90;99.90;;;;;;5092447;28;20183;-73
2021/08/14 13:32:36;;;;;;;8.00;7.20;;;31.20;99.90;;;;;;5092003;28;20674;-73
2021/08/14 13:35:05;;;;;;;9.25;7.55;;;31.40;99.90;;;;;;5092359;28;20221;-73
2021/08/14 13:37:32;;;;;;;8.60;7.70;;;31.50;99.90;;;;;;5094766;28;20221;-73
2021/08/14 13:39:59;;;;;;;8.75;7.93;;;31.40;99.90;;;;;;5092163;28;20196;-73
2021/08/14 13:42:26;;;;;;;7.70;6.88;;;31.50;99.90;;;;;;5092672;28;20196;-73
2021/08/14 13:44:54;;;;;;;7.50;6.82;;;31.60;99.90;;;;;;5092165;28;20619;-72
2021/08/14 13:47:21;;;;;;;10.77;7.43;;;31.60;99.90;;;;;;5092237;28;20193;-73
2021/08/14 13:49:47;;;;;;;8.30;7.47;;;31.60;99.90;;;;;;5092549;28;20301;-73
2021/08/14 13:52:16;;;;;;;8.80;7.93;;;31.70;99.90;;;;;;5091843;28;20300;-73
2021/08/14 13:54:43;;;;;;;8.52;7.82;;;31.60;99.90;;;;;;5092512;28;20186;-73
2021/08/14 13:57:10;;;;;;;8.52;7.55;;;31.70;99.90;;;;;;5091833;28;20190;-72
2021/08/14 13:59:36;;;;;;;10.63;7.38;;;31.90;99.90;;;;;;5092408;28;20632;-74
2021/08/14 14:02:04;;;;;;;8.52;7.68;;;31.90;99.90;;;;;;5091488;28;20325;-74
2021/08/14 14:04:30;;;;;;;7.63;6.93;;;31.70;99.90;;;;;;5092279;28;20200;-73
2021/08/14 14:06:57;;;;;;;8.52;7.68;;;31.70;99.90;;;;;;5091861;28;20186;-72
2021/08/14 14:09:28;;;;;;;8.10;7.40;;;31.80;99.90;;;;;;5092760;28;20200;-73
2021/08/14 14:11:57;;;;;;;8.50;7.60;;;31.90;99.90;;;;;;5091922;28;20214;-72
2021/08/14 14:14:24;;;;;;;7.20;6.60;;;32.30;99.90;;;;;;5092213;28;20284;-74
2021/08/14 14:16:51;;;;;;;7.63;6.93;;;32.10;99.90;;;;;;5092238;28;20194;-73
2021/08/14 14:19:18;;;;;;;7.68;7.05;;;32.40;99.90;;;;;;5091965;28;20552;-73
2021/08/14 14:21:45;;;;;;;8.48;7.68;;;32.50;99.90;;;;;;5092326;28;20221;-73
2021/08/14 14:24:12;;;;;;;9.18;7.90;;;32.40;99.90;;;;;;5091514;28;20291;-72
2021/08/14 14:26:40;;;;;;;7.22;6.63;;;32.80;99.90;;;;;;5091954;28;20285;-73
2021/08/14 14:29:07;;;;;;;8.32;7.68;;;33.30;99.90;;;;;;5091242;28;20232;-72